Fort Atkinson, Iowa
Current Conditions -  °F | °C
As of 2:15 PM on Thursday 23 Oct 2014 (Local Time) from KDEH Reporting Station
Haze Haze  
Wind Chill: 50°   Ceiling: 400
Heat Index: 50°   Visibility: 5mi
Dew Point: 48°   Wind: 5mph
Humidity: 94%   Direction: NA
Pressure: 30.01"   Gusts: NA
Location:  43.14°N, 91.93°W
Report Text: KDEH 231915Z AUTO VRB04KT 5SM BR OVC004 10/09 A3001 RMK AO2
Loading
Personal Weather Stations






























Interactive Weather Map
Tropical Storm Tracking
New forecast layout! Learn more

10-Day Weather Forecast

Advertisements
Track Severe Weather on mobile